createdAt,value
2022-08-09T00:00:12.153Z,20.20
2022-08-09T00:02:43.075Z,20.20
2022-08-09T00:06:16.231Z,20.40
2022-08-09T00:08:10.585Z,20.20
2022-08-09T00:10:39.153Z,20.10
2022-08-09T00:13:17.071Z,20.10
2022-08-09T00:15:59.159Z,20.00
2022-08-09T00:18:31.388Z,20.20
2022-08-09T00:21:04.293Z,20.00
2022-08-09T00:23:56.288Z,20.00
2022-08-09T00:26:19.848Z,20.10
2022-08-09T00:28:58.549Z,19.90
2022-08-09T00:31:59.948Z,19.90
2022-08-09T00:34:15.128Z,19.80
2022-08-09T00:36:47.213Z,19.90
2022-08-09T00:40:09.228Z,19.90
2022-08-09T00:44:10.392Z,19.80
2022-08-09T00:44:50.655Z,19.60
2022-08-09T00:47:21.569Z,19.60
2022-08-09T00:49:55.245Z,19.70
2022-08-09T00:52:28.163Z,19.80
2022-08-09T00:55:04.462Z,19.60
2022-08-09T00:57:34.617Z,19.60
2022-08-09T01:00:21.246Z,19.50
2022-08-09T01:03:19.482Z,19.60
2022-08-09T01:06:18.378Z,19.50
2022-08-09T01:09:01.944Z,19.50
2022-08-09T01:11:29.621Z,19.40
2022-08-09T01:14:29.414Z,19.50
2022-08-09T01:17:01.630Z,19.30
2022-08-09T01:20:01.608Z,19.40
2022-08-09T01:22:40.091Z,19.50
2022-08-09T01:25:21.987Z,19.30
2022-08-09T01:27:52.584Z,19.30
2022-08-09T01:30:33.598Z,19.20
2022-08-09T01:33:04.639Z,19.30
2022-08-09T01:35:39.195Z,19.30
2022-08-09T01:38:15.114Z,19.10
2022-08-09T01:40:53.027Z,19.10
2022-08-09T01:43:50.639Z,19.20
2022-08-09T01:46:25.153Z,19.20
2022-08-09T01:48:55.672Z,19.20
2022-08-09T01:51:26.129Z,19.20
2022-08-09T01:53:58.034Z,19.10
2022-08-09T01:56:27.855Z,18.90
2022-08-09T01:58:57.260Z,18.90
2022-08-09T02:01:58.286Z,18.90
2022-08-09T02:04:16.230Z,19.00
2022-08-09T02:07:02.907Z,18.90
2022-08-09T02:09:41.843Z,18.80
2022-08-09T02:12:18.095Z,18.80
2022-08-09T02:14:51.676Z,18.90
2022-08-09T02:18:00.292Z,18.80
2022-08-09T02:20:25.311Z,18.90
2022-08-09T02:23:00.396Z,18.60
2022-08-09T02:25:29.877Z,18.70
2022-08-09T02:28:04.016Z,18.60
2022-08-09T02:30:35.141Z,18.70
2022-08-09T02:33:03.250Z,18.70
2022-08-09T02:36:02.974Z,18.60
2022-08-09T02:38:29.514Z,18.70
2022-08-09T02:41:00.274Z,18.50
2022-08-09T02:43:29.506Z,18.50
2022-08-09T02:46:18.722Z,18.60
2022-08-09T02:48:47.063Z,18.60
2022-08-09T02:51:20.958Z,18.60
2022-08-09T02:54:00.641Z,18.30
2022-08-09T02:56:31.306Z,18.40
2022-08-09T02:59:00.050Z,18.30
2022-08-09T03:01:29.381Z,18.30
2022-08-09T03:04:16.963Z,18.30
2022-08-09T03:06:48.995Z,18.30
2022-08-09T03:09:17.604Z,18.30
2022-08-09T03:12:06.288Z,18.20
2022-08-09T03:14:36.870Z,18.20
2022-08-09T03:17:05.748Z,18.20
2022-08-09T03:19:59.035Z,18.30
2022-08-09T03:22:25.494Z,18.20
2022-08-09T03:25:06.723Z,18.30
2022-08-09T03:27:51.616Z,18.20
2022-08-09T03:30:30.158Z,18.20
2022-08-09T03:33:17.850Z,18.10
2022-08-09T03:36:13.892Z,18.20
2022-08-09T03:38:41.924Z,18.10
2022-08-09T03:41:15.530Z,18.00
2022-08-09T03:44:03.005Z,18.00
2022-08-09T03:46:32.216Z,18.20
2022-08-09T03:49:04.385Z,18.00
2022-08-09T03:51:57.172Z,17.90
2022-08-09T03:54:29.354Z,17.90
2022-08-09T03:56:58.417Z,17.90
2022-08-09T03:59:42.749Z,18.00
2022-08-09T04:02:11.450Z,18.00
2022-08-09T04:04:46.279Z,18.00
2022-08-09T04:07:16.002Z,18.00
2022-08-09T04:09:50.244Z,17.90
2022-08-09T04:12:31.048Z,17.70
2022-08-09T04:15:01.852Z,17.90
2022-08-09T04:17:30.397Z,17.70
2022-08-09T04:20:02.690Z,17.90
2022-08-09T04:22:31.881Z,17.60
2022-08-09T04:25:01.339Z,17.80
2022-08-09T04:27:30.758Z,17.80
2022-08-09T04:30:01.130Z,17.70
2022-08-09T04:32:31.447Z,17.70
2022-08-09T04:35:08.766Z,17.80
2022-08-09T04:37:42.013Z,17.80
2022-08-09T04:40:29.135Z,17.70
2022-08-09T04:43:02.486Z,17.70
2022-08-09T04:45:36.210Z,17.60
2022-08-09T04:48:19.632Z,17.60
2022-08-09T04:50:50.031Z,17.70
2022-08-09T04:53:18.170Z,17.70
2022-08-09T04:55:58.787Z,17.60
2022-08-09T04:58:28.109Z,17.70
2022-08-09T05:00:57.828Z,17.70
2022-08-09T05:03:40.142Z,17.60
2022-08-09T05:06:11.581Z,17.60
2022-08-09T05:08:39.617Z,17.50
2022-08-09T05:11:12.165Z,17.50
2022-08-09T05:13:40.548Z,17.50
2022-08-09T05:16:10.123Z,17.50
2022-08-09T05:18:58.509Z,17.70
2022-08-09T05:21:29.956Z,17.60
2022-08-09T05:24:01.325Z,17.60
2022-08-09T05:26:45.822Z,17.80
2022-08-09T05:29:21.141Z,17.70
2022-08-09T05:31:56.720Z,17.60
2022-08-09T05:34:31.289Z,17.80
2022-08-09T05:37:05.992Z,17.70
2022-08-09T05:39:43.762Z,17.70
2022-08-09T05:42:17.330Z,17.90
2022-08-09T05:44:58.636Z,17.70
2022-08-09T05:47:30.257Z,17.90
2022-08-09T05:50:25.732Z,18.00
2022-08-09T05:52:53.810Z,18.00
2022-08-09T05:55:23.922Z,17.90
2022-08-09T05:57:57.613Z,17.80
2022-08-09T06:00:32.907Z,17.80
2022-08-09T06:03:02.176Z,17.80
2022-08-09T06:05:58.216Z,17.90
2022-08-09T06:08:24.368Z,18.00
2022-08-09T06:10:53.535Z,18.00
2022-08-09T06:13:21.524Z,18.00
2022-08-09T06:15:51.072Z,18.10
2022-08-09T06:18:24.059Z,18.00
2022-08-09T06:20:57.701Z,18.10
2022-08-09T06:23:55.197Z,18.10
2022-08-09T06:26:20.075Z,18.20
2022-08-09T06:29:00.729Z,18.10
2022-08-09T06:31:39.665Z,18.30
2022-08-09T06:34:22.564Z,18.40
2022-08-09T06:36:59.254Z,18.30
2022-08-09T06:39:57.752Z,18.30
2022-08-09T06:42:16.421Z,18.40
2022-08-09T06:44:51.760Z,18.40
2022-08-09T06:47:22.317Z,18.40
2022-08-09T06:50:14.340Z,18.40
2022-08-09T06:52:45.866Z,18.60
2022-08-09T06:55:22.440Z,18.60
2022-08-09T06:58:02.676Z,18.70
2022-08-09T07:00:49.911Z,18.60
2022-08-09T07:03:19.078Z,18.90
2022-08-09T07:05:53.846Z,19.00
2022-08-09T07:08:31.071Z,19.00
2022-08-09T07:10:58.994Z,19.20
2022-08-09T07:13:29.551Z,19.10
2022-08-09T07:16:43.972Z,19.40
2022-08-09T07:18:47.541Z,19.20
2022-08-09T07:21:18.756Z,19.50
2022-08-09T07:23:56.439Z,19.50
2022-08-09T07:26:26.633Z,19.80
2022-08-09T07:29:08.838Z,19.90
2022-08-09T07:31:45.343Z,20.00
2022-08-09T07:34:20.535Z,20.20
2022-08-09T07:36:49.868Z,20.30
2022-08-09T07:39:20.251Z,20.50
2022-08-09T07:42:06.527Z,20.40
2022-08-09T07:44:52.106Z,20.60
2022-08-09T07:47:23.310Z,20.90
2022-08-09T07:49:52.261Z,21.10
2022-08-09T07:52:35.697Z,20.90
2022-08-09T07:55:09.474Z,21.10
2022-08-09T07:57:37.915Z,21.20
2022-08-09T08:00:20.789Z,21.30
2022-08-09T08:03:04.520Z,21.70
2022-08-09T08:05:39.199Z,21.80
2022-08-09T08:09:01.830Z,22.00
2022-08-09T08:12:09.740Z,22.00
2022-08-09T08:13:57.323Z,22.00
2022-08-09T08:16:29.651Z,22.10
2022-08-09T08:18:58.939Z,22.50
2022-08-09T08:21:26.941Z,22.40
2022-08-09T08:23:55.947Z,22.30
2022-08-09T08:26:26.355Z,22.30
2022-08-09T08:29:09.737Z,22.50
2022-08-09T08:31:56.503Z,22.40
2022-08-09T08:34:25.471Z,22.30
2022-08-09T08:36:53.781Z,22.40
2022-08-09T08:39:23.301Z,22.40
2022-08-09T08:41:52.506Z,22.60
2022-08-09T08:44:23.018Z,22.60
2022-08-09T08:46:59.942Z,22.50
2022-08-09T08:49:46.361Z,22.60
2022-08-09T08:52:50.315Z,22.70
2022-08-09T08:55:05.481Z,23.00
2022-08-09T08:57:34.808Z,22.80
2022-08-09T09:00:13.090Z,22.80
2022-08-09T09:02:52.682Z,23.10
2022-08-09T09:05:26.251Z,23.20
2022-08-09T09:08:29.348Z,23.30
2022-08-09T09:11:04.172Z,23.10
2022-08-09T09:13:56.397Z,23.20
2022-08-09T09:16:32.276Z,23.30
2022-08-09T09:19:36.595Z,23.50
2022-08-09T09:22:07.715Z,23.30
2022-08-09T09:24:43.360Z,23.60
2022-08-09T09:27:22.082Z,23.80
2022-08-09T09:30:13.871Z,23.70
2022-08-09T09:32:44.440Z,24.10
2022-08-09T09:35:15.968Z,24.10
2022-08-09T09:37:46.529Z,24.30
2022-08-09T09:40:14.551Z,24.70
2022-08-09T09:42:55.469Z,24.90
2022-08-09T09:45:26.767Z,24.80
2022-08-09T09:47:58.507Z,25.20
2022-08-09T09:50:51.416Z,25.00
2022-08-09T09:53:34.393Z,25.10
2022-08-09T09:56:09.609Z,25.30
2022-08-09T09:58:57.245Z,25.30
2022-08-09T10:01:31.387Z,25.50
2022-08-09T10:04:22.996Z,25.50
2022-08-09T10:07:03.609Z,25.80
2022-08-09T10:09:54.937Z,25.90
2022-08-09T10:12:28.593Z,25.80
2022-08-09T10:15:17.266Z,25.70
2022-08-09T10:17:55.880Z,25.90
2022-08-09T10:20:32.916Z,26.10
2022-08-09T10:23:17.336Z,26.70
2022-08-09T10:26:08.020Z,26.70
2022-08-09T10:28:36.647Z,26.90
2022-08-09T10:34:10.522Z,27.10
2022-08-09T10:36:42.242Z,26.90
2022-08-09T10:39:15.873Z,27.10
2022-08-09T10:41:46.156Z,27.60
2022-08-09T10:44:17.897Z,27.50
2022-08-09T10:47:01.486Z,27.50
2022-08-09T10:49:52.000Z,27.60
2022-08-09T10:52:42.846Z,28.00
2022-08-09T10:55:35.771Z,28.10
2022-08-09T10:58:30.734Z,28.20
2022-08-09T11:03:02.530Z,28.40
2022-08-09T11:04:07.182Z,28.60
2022-08-09T11:07:01.445Z,28.40
2022-08-09T11:09:38.411Z,28.50
2022-08-09T11:12:10.478Z,28.80
2022-08-09T11:14:44.544Z,29.00
2022-08-09T11:17:14.799Z,29.10
2022-08-09T11:20:11.059Z,29.20
2022-08-09T11:22:46.932Z,29.30
2022-08-09T11:25:47.259Z,29.20
2022-08-09T11:28:34.141Z,29.40
2022-08-09T11:31:34.202Z,29.60
2022-08-09T11:34:07.536Z,29.70
2022-08-09T11:36:42.424Z,29.70
2022-08-09T11:39:11.073Z,30.00
2022-08-09T11:41:40.501Z,30.10
2022-08-09T11:44:08.876Z,30.00
2022-08-09T11:46:56.845Z,29.90
2022-08-09T11:50:52.593Z,30.10
2022-08-09T11:53:03.027Z,30.30
2022-08-09T11:55:35.175Z,30.50
2022-08-09T11:58:19.667Z,30.60
2022-08-09T12:01:08.404Z,30.70
2022-08-09T12:03:56.925Z,30.40
2022-08-09T12:06:32.817Z,30.60
2022-08-09T12:09:17.530Z,30.50
2022-08-09T12:12:03.275Z,30.80
2022-08-09T12:14:48.829Z,30.80
2022-08-09T12:17:34.173Z,30.50
2022-08-09T12:20:21.896Z,30.60
2022-08-09T12:22:53.031Z,30.80
2022-08-09T12:25:35.894Z,30.80
2022-08-09T12:28:58.818Z,30.80
2022-08-09T12:30:58.490Z,31.10
2022-08-09T12:33:50.800Z,30.90
2022-08-09T12:36:27.812Z,31.30
2022-08-09T12:39:02.210Z,31.40
2022-08-09T12:41:38.315Z,31.30
2022-08-09T12:44:10.017Z,31.60
2022-08-09T12:46:41.533Z,31.40
2022-08-09T12:49:11.461Z,31.50
2022-08-09T12:51:59.995Z,31.60
2022-08-09T12:54:27.376Z,31.50
2022-08-09T12:56:55.303Z,31.80
2022-08-09T12:59:24.013Z,31.80
2022-08-09T13:02:01.236Z,31.90
2022-08-09T13:04:37.632Z,31.90
2022-08-09T13:07:13.794Z,31.80
2022-08-09T13:09:52.986Z,31.90
2022-08-09T13:12:23.928Z,32.00
2022-08-09T13:14:54.257Z,32.30
2022-08-09T13:17:44.333Z,32.30
2022-08-09T13:20:16.007Z,32.60
2022-08-09T13:23:05.518Z,32.60
2022-08-09T13:25:52.797Z,32.70
2022-08-09T13:28:34.066Z,32.80
2022-08-09T13:32:14.449Z,32.90
2022-08-09T13:33:58.386Z,32.60
2022-08-09T13:36:40.956Z,32.90
2022-08-09T13:41:20.893Z,32.80
2022-08-09T13:42:12.215Z,33.10
2022-08-09T13:44:42.608Z,33.30
2022-08-09T13:47:15.901Z,33.20
2022-08-09T13:49:57.475Z,33.30
2022-08-09T13:52:27.113Z,33.30
2022-08-09T13:55:00.630Z,33.40
2022-08-09T13:57:36.007Z,33.30
2022-08-09T14:00:06.947Z,33.30
2022-08-09T14:02:36.167Z,33.10
2022-08-09T14:05:10.350Z,33.20
2022-08-09T14:07:41.963Z,33.00
2022-08-09T14:10:17.280Z,32.90
2022-08-09T14:12:58.959Z,32.80
2022-08-09T14:16:07.287Z,32.70
2022-08-09T14:18:19.799Z,32.70
2022-08-09T14:20:56.904Z,32.50
2022-08-09T14:23:40.723Z,32.30
2022-08-09T14:26:12.777Z,31.90
2022-08-09T14:28:40.755Z,32.00
2022-08-09T14:31:08.504Z,31.60
2022-08-09T14:33:38.076Z,31.40
2022-08-09T14:36:20.586Z,31.30
2022-08-09T14:38:52.633Z,31.50
2022-08-09T14:41:34.864Z,31.40
2022-08-09T14:44:09.564Z,31.10
2022-08-09T14:47:03.254Z,31.10
2022-08-09T14:49:28.894Z,31.00
2022-08-09T14:52:02.189Z,31.20
2022-08-09T14:54:30.974Z,30.90
2022-08-09T14:57:01.639Z,30.70
2022-08-09T14:59:31.517Z,30.70
2022-08-09T15:02:06.444Z,30.70
2022-08-09T15:04:37.134Z,30.70
2022-08-09T15:07:05.449Z,30.40
2022-08-09T15:10:04.506Z,30.50
2022-08-09T15:12:25.707Z,30.60
2022-08-09T15:14:55.654Z,30.50
2022-08-09T15:17:23.264Z,30.10
2022-08-09T15:19:59.424Z,30.10
2022-08-09T15:22:27.595Z,30.10
2022-08-09T15:24:55.610Z,30.10
2022-08-09T15:27:23.332Z,29.90
2022-08-09T15:30:55.936Z,30.00
2022-08-09T15:32:45.693Z,29.90
2022-08-09T15:35:18.631Z,30.00
2022-08-09T15:38:11.182Z,29.80
2022-08-09T15:40:43.923Z,29.70
2022-08-09T15:43:13.324Z,29.50
2022-08-09T15:46:07.597Z,29.40
2022-08-09T15:48:30.819Z,29.40
2022-08-09T15:51:11.445Z,29.70
2022-08-09T15:54:04.903Z,29.50
2022-08-09T15:56:39.184Z,29.40
2022-08-09T15:59:06.838Z,29.10
2022-08-09T16:01:35.625Z,29.50
2022-08-09T16:04:03.664Z,29.40
2022-08-09T16:06:35.710Z,29.40
2022-08-09T16:09:06.402Z,29.00
2022-08-09T16:11:34.773Z,29.00
2022-08-09T16:14:08.080Z,29.30
2022-08-09T16:16:37.978Z,29.30
2022-08-09T16:19:09.501Z,29.10
2022-08-09T16:21:38.491Z,29.10
2022-08-09T16:24:12.990Z,28.90
2022-08-09T16:26:57.813Z,29.00
2022-08-09T16:29:37.067Z,28.70
2022-08-09T16:32:33.504Z,28.60
2022-08-09T16:35:02.446Z,28.70
2022-08-09T16:37:53.894Z,28.50
2022-08-09T16:40:29.510Z,28.50
2022-08-09T16:43:05.682Z,28.60
2022-08-09T16:45:33.394Z,28.40
2022-08-09T16:48:39.026Z,28.70
2022-08-09T16:53:33.922Z,28.00
2022-08-09T16:56:06.296Z,28.30
2022-08-09T16:58:39.808Z,28.20
2022-08-09T17:01:19.391Z,28.30
2022-08-09T17:03:51.548Z,28.10
2022-08-09T17:06:31.318Z,28.30
2022-08-09T17:09:17.753Z,28.30
2022-08-09T17:11:52.610Z,28.10
2022-08-09T17:14:27.408Z,28.30
2022-08-09T17:17:01.546Z,28.20
2022-08-09T17:19:47.254Z,27.90
2022-08-09T17:22:25.042Z,28.00
2022-08-09T17:25:03.603Z,27.80
2022-08-09T17:27:33.170Z,28.00
2022-08-09T17:30:06.921Z,27.70
2022-08-09T17:32:45.439Z,27.90
2022-08-09T17:35:14.620Z,27.80
2022-08-09T17:38:07.605Z,27.80
2022-08-09T17:40:32.774Z,27.70
2022-08-09T17:43:11.262Z,27.40
2022-08-09T17:46:03.580Z,27.60
2022-08-09T17:48:32.761Z,27.40
2022-08-09T17:51:08.969Z,27.40
2022-08-09T17:53:43.411Z,27.40
2022-08-09T17:56:18.233Z,27.40
2022-08-09T17:58:46.936Z,27.30
2022-08-09T18:01:22.352Z,27.40
2022-08-09T18:03:54.882Z,27.30
2022-08-09T18:06:31.689Z,27.00
2022-08-09T18:09:03.163Z,27.10
2022-08-09T18:12:05.537Z,26.90
2022-08-09T18:14:21.046Z,27.00
2022-08-09T18:16:49.717Z,27.20
2022-08-09T18:20:55.191Z,27.10
2022-08-09T18:22:13.118Z,26.90
2022-08-09T18:24:45.738Z,26.70
2022-08-09T18:27:18.801Z,26.80
2022-08-09T18:30:38.743Z,26.90
2022-08-09T18:32:54.015Z,26.90
2022-08-09T18:35:58.438Z,26.60
2022-08-09T18:38:11.759Z,26.50
2022-08-09T18:40:41.128Z,26.70
2022-08-09T18:43:10.945Z,26.50
2022-08-09T18:46:50.533Z,26.50
2022-08-09T18:48:30.088Z,26.30
2022-08-09T18:50:59.064Z,26.50
2022-08-09T18:53:36.733Z,26.30
2022-08-09T18:56:16.596Z,26.30
2022-08-09T18:58:45.437Z,26.20
2022-08-09T19:01:13.435Z,26.30
2022-08-09T19:04:00.900Z,26.10
2022-08-09T19:06:28.790Z,26.20
2022-08-09T19:09:02.895Z,26.20
2022-08-09T19:11:37.960Z,25.80
2022-08-09T19:14:07.061Z,25.90
2022-08-09T19:16:36.673Z,26.00
2022-08-09T19:19:21.488Z,25.80
2022-08-09T19:22:04.418Z,25.80
2022-08-09T19:24:38.796Z,25.90
2022-08-09T19:27:20.941Z,25.70
2022-08-09T19:30:22.713Z,25.90
2022-08-09T19:32:37.271Z,25.70
2022-08-09T19:35:05.763Z,25.60
2022-08-09T19:37:54.231Z,25.80
2022-08-09T19:40:22.833Z,25.80
2022-08-09T19:42:50.811Z,25.60
2022-08-09T19:45:20.549Z,25.40
2022-08-09T19:47:48.260Z,25.40
2022-08-09T19:50:50.732Z,25.40
2022-08-09T19:53:04.980Z,25.40
2022-08-09T19:55:53.032Z,25.60
2022-08-09T19:58:29.766Z,25.60
2022-08-09T20:00:58.630Z,25.60
2022-08-09T20:04:17.442Z,25.20
2022-08-09T20:06:23.584Z,25.20
2022-08-09T20:09:44.927Z,25.10
2022-08-09T20:12:06.953Z,25.10
2022-08-09T20:14:53.242Z,25.10
2022-08-09T20:17:21.962Z,25.10
2022-08-09T20:19:53.915Z,25.00
2022-08-09T20:22:32.036Z,25.00
2022-08-09T20:25:00.105Z,24.90
2022-08-09T20:27:29.343Z,24.90
2022-08-09T20:29:57.850Z,25.00
2022-08-09T20:32:33.157Z,24.80
2022-08-09T20:35:13.822Z,24.70
2022-08-09T20:38:08.753Z,24.90
2022-08-09T20:40:31.485Z,24.60
2022-08-09T20:43:18.026Z,24.60
2022-08-09T20:45:59.629Z,24.50
2022-08-09T20:48:39.494Z,24.40
2022-08-09T20:51:07.455Z,24.60
2022-08-09T20:53:48.951Z,24.40
2022-08-09T20:56:20.045Z,24.50
2022-08-09T20:58:54.637Z,24.30
2022-08-09T21:01:34.954Z,24.40
2022-08-09T21:05:55.899Z,24.30
2022-08-09T21:07:11.877Z,24.20
2022-08-09T21:09:56.311Z,24.10
2022-08-09T21:15:23.773Z,24.10
2022-08-09T21:18:11.158Z,23.90
2022-08-09T21:20:40.503Z,24.20
2022-08-09T21:23:13.308Z,24.10
2022-08-09T21:25:59.146Z,24.00
2022-08-09T21:28:33.700Z,23.70
2022-08-09T21:31:16.416Z,23.80
2022-08-09T21:33:50.840Z,24.00
2022-08-09T21:36:20.125Z,23.90
2022-08-09T21:38:57.008Z,23.70
2022-08-09T21:42:03.660Z,23.60
2022-08-09T21:44:15.502Z,23.60
2022-08-09T21:47:01.918Z,23.60
2022-08-09T21:49:29.630Z,23.80
2022-08-09T21:52:15.044Z,23.50
2022-08-09T21:54:46.308Z,23.50
2022-08-09T21:57:37.206Z,23.70
2022-08-09T22:00:09.022Z,23.60
2022-08-09T22:02:39.997Z,23.40
2022-08-09T22:05:16.815Z,23.50
2022-08-09T22:07:52.271Z,23.50
2022-08-09T22:10:23.182Z,23.30
2022-08-09T22:12:52.740Z,23.30
2022-08-09T22:15:20.625Z,23.20
2022-08-09T22:17:51.616Z,23.40
2022-08-09T22:20:27.203Z,23.20
2022-08-09T22:22:55.671Z,23.40
2022-08-09T22:26:07.453Z,23.40
2022-08-09T22:28:11.608Z,23.40
2022-08-09T22:30:41.859Z,23.20
2022-08-09T22:33:17.303Z,23.10
2022-08-09T22:36:02.441Z,23.10
2022-08-09T22:38:31.605Z,23.10
2022-08-09T22:40:59.266Z,23.10
2022-08-09T22:44:01.471Z,23.10
2022-08-09T22:48:12.119Z,22.80
2022-08-09T22:49:10.109Z,22.90
2022-08-09T22:51:39.488Z,22.80
2022-08-09T22:54:21.283Z,22.70
2022-08-09T22:56:50.814Z,22.70
2022-08-09T22:59:56.158Z,22.60
2022-08-09T23:02:11.159Z,22.60
2022-08-09T23:04:53.685Z,22.60
2022-08-09T23:08:22.408Z,22.70
2022-08-09T23:10:28.450Z,22.60
2022-08-09T23:12:56.082Z,22.50
2022-08-09T23:15:24.134Z,22.40
2022-08-09T23:17:51.746Z,22.60
2022-08-09T23:20:19.722Z,22.60
2022-08-09T23:22:47.371Z,22.40
2022-08-09T23:25:15.307Z,22.50
2022-08-09T23:28:10.942Z,22.50
2022-08-09T23:30:31.871Z,22.50
2022-08-09T23:32:59.464Z,22.20
2022-08-09T23:35:27.497Z,22.40
2022-08-09T23:37:55.117Z,22.40
2022-08-09T23:40:22.835Z,22.20
2022-08-09T23:42:50.453Z,22.10
2022-08-09T23:45:37.349Z,22.10
2022-08-09T23:48:08.915Z,22.10
2022-08-09T23:50:37.333Z,22.00
2022-08-09T23:53:05.484Z,22.00
2022-08-09T23:55:36.924Z,22.20
2022-08-09T23:58:10.310Z,22.00
